sensor_id;sensor_type;location;lat;lon;timestamp;P1;durP1;ratioP1;P2;durP2;ratioP2
9948;SDS011;5013;51.840;8.276;2023-03-05T00:01:28;13.50;;;3.90;;
9948;SDS011;5013;51.840;8.276;2023-03-05T00:03:57;10.67;;;3.00;;
9948;SDS011;5013;51.840;8.276;2023-03-05T00:06:24;14.70;;;3.40;;
9948;SDS011;5013;51.840;8.276;2023-03-05T00:08:52;14.07;;;4.30;;
9948;SDS011;5013;51.840;8.276;2023-03-05T00:11:19;12.40;;;2.93;;
9948;SDS011;5013;51.840;8.276;2023-03-05T00:13:45;12.97;;;3.33;;
9948;SDS011;5013;51.840;8.276;2023-03-05T00:16:12;10.50;;;3.07;;
9948;SDS011;5013;51.840;8.276;2023-03-05T00:18:39;14.73;;;3.50;;
9948;SDS011;5013;51.840;8.276;2023-03-05T00:21:15;17.30;;;3.47;;
9948;SDS011;5013;51.840;8.276;2023-03-05T00:23:49;29.27;;;3.57;;
9948;SDS011;5013;51.840;8.276;2023-03-05T00:26:16;11.47;;;3.73;;
9948;SDS011;5013;51.840;8.276;2023-03-05T00:28:47;18.57;;;4.10;;
9948;SDS011;5013;51.840;8.276;2023-03-05T00:31:17;17.90;;;4.80;;
9948;SDS011;5013;51.840;8.276;2023-03-05T00:33:52;14.33;;;4.20;;
9948;SDS011;5013;51.840;8.276;2023-03-05T00:36:18;16.50;;;4.53;;
9948;SDS011;5013;51.840;8.276;2023-03-05T00:38:44;17.37;;;4.90;;
9948;SDS011;5013;51.840;8.276;2023-03-05T00:41:10;13.03;;;3.47;;
9948;SDS011;5013;51.840;8.276;2023-03-05T00:43:35;16.83;;;5.20;;
9948;SDS011;5013;51.840;8.276;2023-03-05T00:46:01;17.00;;;4.57;;
9948;SDS011;5013;51.840;8.276;2023-03-05T00:48:26;20.40;;;5.60;;
9948;SDS011;5013;51.840;8.276;2023-03-05T00:50:52;16.70;;;5.83;;
9948;SDS011;5013;51.840;8.276;2023-03-05T00:53:17;19.70;;;6.80;;
9948;SDS011;5013;51.840;8.276;2023-03-05T00:55:43;27.90;;;8.40;;
9948;SDS011;5013;51.840;8.276;2023-03-05T00:58:09;19.07;;;6.90;;
9948;SDS011;5013;51.840;8.276;2023-03-05T01:00:35;26.00;;;8.27;;
9948;SDS011;5013;51.840;8.276;2023-03-05T01:03:01;20.63;;;5.87;;
9948;SDS011;5013;51.840;8.276;2023-03-05T01:05:27;21.77;;;5.23;;
9948;SDS011;5013;51.840;8.276;2023-03-05T01:07:53;17.23;;;6.00;;
9948;SDS011;5013;51.840;8.276;2023-03-05T01:10:20;18.83;;;6.17;;
9948;SDS011;5013;51.840;8.276;2023-03-05T01:12:47;21.00;;;5.63;;
9948;SDS011;5013;51.840;8.276;2023-03-05T01:15:13;22.40;;;6.47;;
9948;SDS011;5013;51.840;8.276;2023-03-05T01:17:39;31.67;;;6.90;;
9948;SDS011;5013;51.840;8.276;2023-03-05T01:20:05;22.67;;;5.83;;
9948;SDS011;5013;51.840;8.276;2023-03-05T01:22:31;23.70;;;7.97;;
9948;SDS011;5013;51.840;8.276;2023-03-05T01:24:56;21.47;;;6.37;;
9948;SDS011;5013;51.840;8.276;2023-03-05T01:27:22;25.07;;;4.97;;
9948;SDS011;5013;51.840;8.276;2023-03-05T01:29:48;25.47;;;6.50;;
9948;SDS011;5013;51.840;8.276;2023-03-05T01:32:13;28.27;;;7.27;;
9948;SDS011;5013;51.840;8.276;2023-03-05T01:34:39;18.97;;;4.10;;
9948;SDS011;5013;51.840;8.276;2023-03-05T01:37:06;23.00;;;3.97;;
9948;SDS011;5013;51.840;8.276;2023-03-05T01:39:32;16.60;;;3.93;;
9948;SDS011;5013;51.840;8.276;2023-03-05T01:41:57;17.13;;;4.70;;
9948;SDS011;5013;51.840;8.276;2023-03-05T01:44:25;19.47;;;4.10;;
9948;SDS011;5013;51.840;8.276;2023-03-05T01:46:52;15.63;;;4.73;;
9948;SDS011;5013;51.840;8.276;2023-03-05T01:49:19;21.30;;;4.73;;
9948;SDS011;5013;51.840;8.276;2023-03-05T01:54:33;16.10;;;3.80;;
9948;SDS011;5013;51.840;8.276;2023-03-05T01:57:04;14.53;;;4.23;;
9948;SDS011;5013;51.840;8.276;2023-03-05T01:59:33;20.63;;;5.03;;
9948;SDS011;5013;51.840;8.276;2023-03-05T02:02:01;15.27;;;4.37;;
9948;SDS011;5013;51.840;8.276;2023-03-05T02:04:36;16.87;;;4.43;;
9948;SDS011;5013;51.840;8.276;2023-03-05T02:07:09;19.27;;;5.13;;
9948;SDS011;5013;51.840;8.276;2023-03-05T02:09:37;19.00;;;4.50;;
9948;SDS011;5013;51.840;8.276;2023-03-05T02:12:04;14.67;;;3.87;;
9948;SDS011;5013;51.840;8.276;2023-03-05T02:14:30;15.90;;;3.90;;
9948;SDS011;5013;51.840;8.276;2023-03-05T02:16:57;17.60;;;5.00;;
9948;SDS011;5013;51.840;8.276;2023-03-05T02:19:22;16.50;;;4.17;;
9948;SDS011;5013;51.840;8.276;2023-03-05T02:21:48;13.60;;;3.70;;
9948;SDS011;5013;51.840;8.276;2023-03-05T02:24:15;19.77;;;5.23;;
9948;SDS011;5013;51.840;8.276;2023-03-05T02:26:43;20.17;;;4.30;;
9948;SDS011;5013;51.840;8.276;2023-03-05T02:29:12;13.40;;;3.70;;
9948;SDS011;5013;51.840;8.276;2023-03-05T02:31:41;11.37;;;4.30;;
9948;SDS011;5013;51.840;8.276;2023-03-05T02:34:07;14.27;;;4.67;;
9948;SDS011;5013;51.840;8.276;2023-03-05T02:36:32;13.37;;;4.00;;
9948;SDS011;5013;51.840;8.276;2023-03-05T02:38:58;12.37;;;3.80;;
9948;SDS011;5013;51.840;8.276;2023-03-05T02:41:24;16.50;;;4.13;;
9948;SDS011;5013;51.840;8.276;2023-03-05T02:43:50;18.37;;;5.07;;
9948;SDS011;5013;51.840;8.276;2023-03-05T02:46:16;13.73;;;4.27;;
9948;SDS011;5013;51.840;8.276;2023-03-05T02:48:41;17.47;;;3.97;;
9948;SDS011;5013;51.840;8.276;2023-03-05T02:51:08;29.60;;;5.03;;
9948;SDS011;5013;51.840;8.276;2023-03-05T02:53:34;10.87;;;3.40;;
9948;SDS011;5013;51.840;8.276;2023-03-05T02:56:00;15.20;;;4.53;;
9948;SDS011;5013;51.840;8.276;2023-03-05T02:58:26;14.53;;;3.17;;
9948;SDS011;5013;51.840;8.276;2023-03-05T03:00:51;22.43;;;4.60;;
9948;SDS011;5013;51.840;8.276;2023-03-05T03:03:17;16.23;;;3.60;;
9948;SDS011;5013;51.840;8.276;2023-03-05T03:05:42;13.53;;;4.17;;
9948;SDS011;5013;51.840;8.276;2023-03-05T03:08:08;15.87;;;4.10;;
9948;SDS011;5013;51.840;8.276;2023-03-05T03:10:34;11.00;;;3.83;;
9948;SDS011;5013;51.840;8.276;2023-03-05T03:13:00;14.27;;;4.00;;
9948;SDS011;5013;51.840;8.276;2023-03-05T03:15:26;19.83;;;4.10;;
9948;SDS011;5013;51.840;8.276;2023-03-05T03:17:51;20.43;;;4.10;;
9948;SDS011;5013;51.840;8.276;2023-03-05T03:20:18;16.33;;;4.23;;
9948;SDS011;5013;51.840;8.276;2023-03-05T03:22:45;11.10;;;3.77;;
9948;SDS011;5013;51.840;8.276;2023-03-05T03:25:13;13.07;;;4.23;;
9948;SDS011;5013;51.840;8.276;2023-03-05T03:27:43;22.20;;;5.10;;
9948;SDS011;5013;51.840;8.276;2023-03-05T03:30:09;12.23;;;4.27;;
9948;SDS011;5013;51.840;8.276;2023-03-05T03:32:35;22.17;;;4.73;;
9948;SDS011;5013;51.840;8.276;2023-03-05T03:35:01;17.23;;;5.50;;
9948;SDS011;5013;51.840;8.276;2023-03-05T03:37:27;21.10;;;5.77;;
9948;SDS011;5013;51.840;8.276;2023-03-05T03:39:53;18.43;;;6.40;;
9948;SDS011;5013;51.840;8.276;2023-03-05T03:42:19;15.20;;;5.37;;
9948;SDS011;5013;51.840;8.276;2023-03-05T03:44:46;17.17;;;6.47;;
9948;SDS011;5013;51.840;8.276;2023-03-05T03:47:12;18.70;;;6.90;;
9948;SDS011;5013;51.840;8.276;2023-03-05T03:49:37;21.13;;;7.23;;
9948;SDS011;5013;51.840;8.276;2023-03-05T03:52:03;23.47;;;7.03;;
9948;SDS011;5013;51.840;8.276;2023-03-05T03:54:29;16.97;;;5.57;;
9948;SDS011;5013;51.840;8.276;2023-03-05T03:56:54;12.97;;;5.67;;
9948;SDS011;5013;51.840;8.276;2023-03-05T03:59:20;18.57;;;5.17;;
9948;SDS011;5013;51.840;8.276;2023-03-05T04:01:46;16.83;;;5.43;;
9948;SDS011;5013;51.840;8.276;2023-03-05T04:04:12;15.10;;;5.43;;
9948;SDS011;5013;51.840;8.276;2023-03-05T04:06:37;17.07;;;5.50;;
9948;SDS011;5013;51.840;8.276;2023-03-05T04:09:04;19.50;;;6.57;;
9948;SDS011;5013;51.840;8.276;2023-03-05T04:11:32;12.47;;;5.70;;
9948;SDS011;5013;51.840;8.276;2023-03-05T04:13:57;16.90;;;5.83;;
9948;SDS011;5013;51.840;8.276;2023-03-05T04:16:23;14.43;;;5.20;;
9948;SDS011;5013;51.840;8.276;2023-03-05T04:18:49;15.17;;;5.43;;
9948;SDS011;5013;51.840;8.276;2023-03-05T04:21:14;11.83;;;4.83;;
9948;SDS011;5013;51.840;8.276;2023-03-05T04:23:40;17.00;;;4.57;;
9948;SDS011;5013;51.840;8.276;2023-03-05T04:26:06;11.37;;;4.50;;
9948;SDS011;5013;51.840;8.276;2023-03-05T04:28:31;14.60;;;4.50;;
9948;SDS011;5013;51.840;8.276;2023-03-05T04:30:57;17.53;;;4.90;;
9948;SDS011;5013;51.840;8.276;2023-03-05T04:33:23;6.73;;;4.10;;
9948;SDS011;5013;51.840;8.276;2023-03-05T04:35:49;17.13;;;4.50;;
9948;SDS011;5013;51.840;8.276;2023-03-05T04:38:15;16.67;;;5.20;;
9948;SDS011;5013;51.840;8.276;2023-03-05T04:40:40;12.57;;;5.17;;
9948;SDS011;5013;51.840;8.276;2023-03-05T04:43:06;17.90;;;4.87;;
9948;SDS011;5013;51.840;8.276;2023-03-05T04:45:32;21.70;;;5.60;;
9948;SDS011;5013;51.840;8.276;2023-03-05T04:47:57;13.90;;;5.63;;
9948;SDS011;5013;51.840;8.276;2023-03-05T04:50:23;11.60;;;5.37;;
9948;SDS011;5013;51.840;8.276;2023-03-05T04:52:49;14.83;;;5.50;;
9948;SDS011;5013;51.840;8.276;2023-03-05T04:55:15;13.87;;;5.20;;
9948;SDS011;5013;51.840;8.276;2023-03-05T04:57:41;15.53;;;4.93;;
9948;SDS011;5013;51.840;8.276;2023-03-05T05:00:09;14.63;;;4.93;;
9948;SDS011;5013;51.840;8.276;2023-03-05T05:02:38;13.10;;;4.27;;
9948;SDS011;5013;51.840;8.276;2023-03-05T05:05:05;17.13;;;4.50;;
9948;SDS011;5013;51.840;8.276;2023-03-05T05:07:31;18.90;;;5.00;;
9948;SDS011;5013;51.840;8.276;2023-03-05T05:09:57;12.37;;;4.20;;
9948;SDS011;5013;51.840;8.276;2023-03-05T05:12:22;15.13;;;4.23;;
9948;SDS011;5013;51.840;8.276;2023-03-05T05:14:48;11.70;;;4.20;;
9948;SDS011;5013;51.840;8.276;2023-03-05T05:17:14;15.93;;;4.73;;
9948;SDS011;5013;51.840;8.276;2023-03-05T05:19:39;17.13;;;4.63;;
9948;SDS011;5013;51.840;8.276;2023-03-05T05:22:05;11.33;;;4.70;;
9948;SDS011;5013;51.840;8.276;2023-03-05T05:24:30;19.73;;;6.07;;
9948;SDS011;5013;51.840;8.276;2023-03-05T05:26:56;20.33;;;5.37;;
9948;SDS011;5013;51.840;8.276;2023-03-05T05:29:22;12.73;;;5.10;;
9948;SDS011;5013;51.840;8.276;2023-03-05T05:31:48;14.07;;;5.30;;
9948;SDS011;5013;51.840;8.276;2023-03-05T05:34:14;12.10;;;5.07;;
9948;SDS011;5013;51.840;8.276;2023-03-05T05:36:40;14.23;;;4.77;;
9948;SDS011;5013;51.840;8.276;2023-03-05T05:39:05;12.13;;;4.83;;
9948;SDS011;5013;51.840;8.276;2023-03-05T05:41:31;20.30;;;6.13;;
9948;SDS011;5013;51.840;8.276;2023-03-05T05:43:56;19.10;;;5.50;;
9948;SDS011;5013;51.840;8.276;2023-03-05T05:46:22;14.83;;;5.23;;
9948;SDS011;5013;51.840;8.276;2023-03-05T05:48:48;13.90;;;5.97;;
9948;SDS011;5013;51.840;8.276;2023-03-05T05:51:18;12.83;;;5.43;;
9948;SDS011;5013;51.840;8.276;2023-03-05T05:53:46;17.00;;;6.63;;
9948;SDS011;5013;51.840;8.276;2023-03-05T05:56:13;12.70;;;5.07;;
9948;SDS011;5013;51.840;8.276;2023-03-05T05:58:40;24.23;;;6.43;;
9948;SDS011;5013;51.840;8.276;2023-03-05T06:01:14;22.70;;;5.97;;
9948;SDS011;5013;51.840;8.276;2023-03-05T06:03:48;17.93;;;6.60;;
9948;SDS011;5013;51.840;8.276;2023-03-05T06:06:14;23.23;;;6.77;;
9948;SDS011;5013;51.840;8.276;2023-03-05T06:08:41;21.77;;;8.00;;
9948;SDS011;5013;51.840;8.276;2023-03-05T06:11:07;21.03;;;8.17;;
9948;SDS011;5013;51.840;8.276;2023-03-05T06:13:33;19.27;;;8.27;;
9948;SDS011;5013;51.840;8.276;2023-03-05T06:16:00;22.93;;;8.20;;
9948;SDS011;5013;51.840;8.276;2023-03-05T06:18:28;20.47;;;8.93;;
9948;SDS011;5013;51.840;8.276;2023-03-05T06:20:58;26.00;;;7.83;;
9948;SDS011;5013;51.840;8.276;2023-03-05T06:23:26;23.10;;;7.60;;
9948;SDS011;5013;51.840;8.276;2023-03-05T06:25:52;20.30;;;7.67;;
9948;SDS011;5013;51.840;8.276;2023-03-05T06:28:19;22.77;;;7.40;;
9948;SDS011;5013;51.840;8.276;2023-03-05T06:30:45;22.87;;;8.17;;
9948;SDS011;5013;51.840;8.276;2023-03-05T06:33:11;17.53;;;7.60;;
9948;SDS011;5013;51.840;8.276;2023-03-05T06:35:37;24.97;;;9.23;;
9948;SDS011;5013;51.840;8.276;2023-03-05T06:38:06;18.30;;;8.53;;
9948;SDS011;5013;51.840;8.276;2023-03-05T06:40:33;18.07;;;8.13;;
9948;SDS011;5013;51.840;8.276;2023-03-05T06:42:59;33.07;;;10.17;;
9948;SDS011;5013;51.840;8.276;2023-03-05T06:45:24;20.87;;;8.87;;
9948;SDS011;5013;51.840;8.276;2023-03-05T06:47:50;23.77;;;9.57;;
9948;SDS011;5013;51.840;8.276;2023-03-05T06:50:16;22.20;;;9.03;;
9948;SDS011;5013;51.840;8.276;2023-03-05T06:52:41;17.77;;;8.37;;
9948;SDS011;5013;51.840;8.276;2023-03-05T06:55:07;23.47;;;7.43;;
9948;SDS011;5013;51.840;8.276;2023-03-05T06:57:34;18.73;;;6.47;;
9948;SDS011;5013;51.840;8.276;2023-03-05T07:00:00;16.10;;;5.73;;
9948;SDS011;5013;51.840;8.276;2023-03-05T07:02:30;19.70;;;6.43;;
9948;SDS011;5013;51.840;8.276;2023-03-05T07:04:55;12.57;;;6.60;;
9948;SDS011;5013;51.840;8.276;2023-03-05T07:07:21;15.80;;;7.17;;
9948;SDS011;5013;51.840;8.276;2023-03-05T07:09:46;15.53;;;7.80;;
9948;SDS011;5013;51.840;8.276;2023-03-05T07:12:14;20.63;;;8.60;;
9948;SDS011;5013;51.840;8.276;2023-03-05T07:14:39;21.17;;;8.60;;
9948;SDS011;5013;51.840;8.276;2023-03-05T07:17:05;17.87;;;8.97;;
9948;SDS011;5013;51.840;8.276;2023-03-05T07:19:31;26.00;;;9.30;;
9948;SDS011;5013;51.840;8.276;2023-03-05T07:21:57;23.47;;;9.50;;
9948;SDS011;5013;51.840;8.276;2023-03-05T07:24:22;24.30;;;9.27;;
9948;SDS011;5013;51.840;8.276;2023-03-05T07:26:54;26.93;;;11.27;;
9948;SDS011;5013;51.840;8.276;2023-03-05T07:29:21;22.07;;;10.40;;
9948;SDS011;5013;51.840;8.276;2023-03-05T07:31:47;23.73;;;10.20;;
9948;SDS011;5013;51.840;8.276;2023-03-05T07:34:13;16.97;;;9.83;;
9948;SDS011;5013;51.840;8.276;2023-03-05T07:36:39;27.33;;;11.23;;
9948;SDS011;5013;51.840;8.276;2023-03-05T07:39:06;24.47;;;9.70;;
9948;SDS011;5013;51.840;8.276;2023-03-05T07:41:32;20.57;;;9.20;;
9948;SDS011;5013;51.840;8.276;2023-03-05T07:43:58;23.73;;;9.10;;
9948;SDS011;5013;51.840;8.276;2023-03-05T07:46:26;23.30;;;9.30;;
9948;SDS011;5013;51.840;8.276;2023-03-05T07:48:53;21.43;;;10.10;;
9948;SDS011;5013;51.840;8.276;2023-03-05T07:51:19;20.63;;;11.17;;
9948;SDS011;5013;51.840;8.276;2023-03-05T07:53:46;24.63;;;12.07;;
9948;SDS011;5013;51.840;8.276;2023-03-05T07:56:19;26.33;;;12.07;;
9948;SDS011;5013;51.840;8.276;2023-03-05T07:58:50;21.73;;;12.63;;
9948;SDS011;5013;51.840;8.276;2023-03-05T08:01:15;21.53;;;9.70;;
9948;SDS011;5013;51.840;8.276;2023-03-05T08:03:41;17.80;;;9.10;;
9948;SDS011;5013;51.840;8.276;2023-03-05T08:06:07;16.93;;;8.33;;
9948;SDS011;5013;51.840;8.276;2023-03-05T08:08:34;13.73;;;7.50;;
9948;SDS011;5013;51.840;8.276;2023-03-05T08:11:07;9.90;;;6.47;;
9948;SDS011;5013;51.840;8.276;2023-03-05T08:13:34;6.17;;;5.00;;
9948;SDS011;5013;51.840;8.276;2023-03-05T08:16:04;7.57;;;4.60;;
9948;SDS011;5013;51.840;8.276;2023-03-05T08:18:31;9.17;;;3.83;;
9948;SDS011;5013;51.840;8.276;2023-03-05T08:20:57;7.30;;;3.60;;
9948;SDS011;5013;51.840;8.276;2023-03-05T08:23:23;4.77;;;3.23;;
9948;SDS011;5013;51.840;8.276;2023-03-05T08:25:49;8.00;;;3.90;;
9948;SDS011;5013;51.840;8.276;2023-03-05T08:28:14;15.87;;;6.13;;
9948;SDS011;5013;51.840;8.276;2023-03-05T08:30:43;13.77;;;7.77;;
9948;SDS011;5013;51.840;8.276;2023-03-05T08:33:10;18.20;;;12.20;;
9948;SDS011;5013;51.840;8.276;2023-03-05T08:35:36;17.17;;;11.13;;
9948;SDS011;5013;51.840;8.276;2023-03-05T08:38:02;23.07;;;12.13;;
9948;SDS011;5013;51.840;8.276;2023-03-05T08:40:28;19.07;;;11.93;;
9948;SDS011;5013;51.840;8.276;2023-03-05T08:42:53;15.30;;;10.20;;
9948;SDS011;5013;51.840;8.276;2023-03-05T08:45:19;14.87;;;9.00;;
9948;SDS011;5013;51.840;8.276;2023-03-05T08:47:45;11.73;;;9.27;;
9948;SDS011;5013;51.840;8.276;2023-03-05T08:50:10;13.40;;;8.93;;
9948;SDS011;5013;51.840;8.276;2023-03-05T08:52:36;10.70;;;8.43;;
9948;SDS011;5013;51.840;8.276;2023-03-05T08:55:02;12.13;;;7.20;;
9948;SDS011;5013;51.840;8.276;2023-03-05T08:57:28;9.63;;;6.13;;
9948;SDS011;5013;51.840;8.276;2023-03-05T08:59:53;10.70;;;6.70;;
9948;SDS011;5013;51.840;8.276;2023-03-05T09:02:19;15.23;;;7.73;;
9948;SDS011;5013;51.840;8.276;2023-03-05T09:04:44;11.43;;;8.20;;
9948;SDS011;5013;51.840;8.276;2023-03-05T09:07:10;6.90;;;6.20;;
9948;SDS011;5013;51.840;8.276;2023-03-05T09:09:36;10.57;;;5.73;;
9948;SDS011;5013;51.840;8.276;2023-03-05T09:12:03;7.83;;;4.37;;
9948;SDS011;5013;51.840;8.276;2023-03-05T09:14:28;7.13;;;3.80;;
9948;SDS011;5013;51.840;8.276;2023-03-05T09:16:55;5.60;;;2.97;;
9948;SDS011;5013;51.840;8.276;2023-03-05T09:19:21;3.87;;;2.93;;
9948;SDS011;5013;51.840;8.276;2023-03-05T09:21:46;9.60;;;3.53;;
9948;SDS011;5013;51.840;8.276;2023-03-05T09:24:12;7.60;;;3.70;;
9948;SDS011;5013;51.840;8.276;2023-03-05T09:26:37;8.50;;;3.70;;
9948;SDS011;5013;51.840;8.276;2023-03-05T09:29:04;6.03;;;2.97;;
9948;SDS011;5013;51.840;8.276;2023-03-05T09:31:32;6.33;;;3.00;;
9948;SDS011;5013;51.840;8.276;2023-03-05T09:33:58;5.37;;;2.57;;
9948;SDS011;5013;51.840;8.276;2023-03-05T09:36:25;6.93;;;2.60;;
9948;SDS011;5013;51.840;8.276;2023-03-05T09:38:54;6.67;;;3.07;;
9948;SDS011;5013;51.840;8.276;2023-03-05T09:41:50;6.57;;;2.73;;
9948;SDS011;5013;51.840;8.276;2023-03-05T09:56:09;3.77;;;2.10;;
9948;SDS011;5013;51.840;8.276;2023-03-05T09:58:37;3.67;;;2.23;;
9948;SDS011;5013;51.840;8.276;2023-03-05T10:01:07;3.40;;;2.10;;
9948;SDS011;5013;51.840;8.276;2023-03-05T10:03:51;3.33;;;2.03;;
9948;SDS011;5013;51.840;8.276;2023-03-05T10:06:25;7.73;;;3.13;;
9948;SDS011;5013;51.840;8.276;2023-03-05T10:11:48;2.50;;;2.30;;
9948;SDS011;5013;51.840;8.276;2023-03-05T10:14:31;5.30;;;2.20;;
9948;SDS011;5013;51.840;8.276;2023-03-05T10:22:35;5.53;;;3.53;;
9948;SDS011;5013;51.840;8.276;2023-03-05T10:25:17;5.23;;;3.70;;
9948;SDS011;5013;51.840;8.276;2023-03-05T10:27:49;4.40;;;2.63;;
9948;SDS011;5013;51.840;8.276;2023-03-05T10:33:25;7.87;;;3.80;;
9948;SDS011;5013;51.840;8.276;2023-03-05T10:41:28;11.30;;;7.47;;
9948;SDS011;5013;51.840;8.276;2023-03-05T10:44:03;10.57;;;4.80;;
9948;SDS011;5013;51.840;8.276;2023-03-05T10:46:34;9.27;;;4.40;;
9948;SDS011;5013;51.840;8.276;2023-03-05T10:49:05;4.40;;;2.87;;
9948;SDS011;5013;51.840;8.276;2023-03-05T10:52:13;4.50;;;2.83;;
9948;SDS011;5013;51.840;8.276;2023-03-05T10:54:46;5.90;;;2.67;;
9948;SDS011;5013;51.840;8.276;2023-03-05T11:00:06;7.60;;;2.57;;
9948;SDS011;5013;51.840;8.276;2023-03-05T11:02:52;3.03;;;2.37;;
9948;SDS011;5013;51.840;8.276;2023-03-05T11:10:43;6.47;;;2.83;;
9948;SDS011;5013;51.840;8.276;2023-03-05T11:13:25;5.53;;;2.37;;
9948;SDS011;5013;51.840;8.276;2023-03-05T11:16:01;4.70;;;2.00;;
9948;SDS011;5013;51.840;8.276;2023-03-05T11:18:28;4.17;;;2.10;;
9948;SDS011;5013;51.840;8.276;2023-03-05T11:24:15;4.17;;;2.07;;
9948;SDS011;5013;51.840;8.276;2023-03-05T11:26:54;2.67;;;1.60;;
9948;SDS011;5013;51.840;8.276;2023-03-05T11:29:22;6.07;;;1.80;;
9948;SDS011;5013;51.840;8.276;2023-03-05T11:31:50;4.93;;;2.20;;
9948;SDS011;5013;51.840;8.276;2023-03-05T11:36:43;3.90;;;1.53;;
9948;SDS011;5013;51.840;8.276;2023-03-05T11:39:27;2.90;;;1.60;;
9948;SDS011;5013;51.840;8.276;2023-03-05T11:44:28;3.37;;;2.33;;
9948;SDS011;5013;51.840;8.276;2023-03-05T11:49:39;6.57;;;1.80;;
9948;SDS011;5013;51.840;8.276;2023-03-05T11:52:14;4.73;;;2.53;;
9948;SDS011;5013;51.840;8.276;2023-03-05T11:57:40;5.23;;;3.30;;
9948;SDS011;5013;51.840;8.276;2023-03-05T12:00:15;5.07;;;2.63;;
9948;SDS011;5013;51.840;8.276;2023-03-05T12:02:45;6.67;;;4.00;;
9948;SDS011;5013;51.840;8.276;2023-03-05T12:05:17;3.63;;;2.33;;
9948;SDS011;5013;51.840;8.276;2023-03-05T12:07:44;4.17;;;3.07;;
9948;SDS011;5013;51.840;8.276;2023-03-05T12:10:16;5.70;;;4.07;;
9948;SDS011;5013;51.840;8.276;2023-03-05T12:12:52;6.47;;;3.10;;
9948;SDS011;5013;51.840;8.276;2023-03-05T12:18:12;6.23;;;3.03;;
9948;SDS011;5013;51.840;8.276;2023-03-05T12:23:21;4.80;;;2.87;;
9948;SDS011;5013;51.840;8.276;2023-03-05T12:25:51;4.17;;;2.37;;
9948;SDS011;5013;51.840;8.276;2023-03-05T12:31:00;6.33;;;2.80;;
9948;SDS011;5013;51.840;8.276;2023-03-05T12:33:36;3.40;;;2.40;;
9948;SDS011;5013;51.840;8.276;2023-03-05T12:38:41;4.57;;;2.33;;
9948;SDS011;5013;51.840;8.276;2023-03-05T12:46:30;7.33;;;2.33;;
9948;SDS011;5013;51.840;8.276;2023-03-05T12:49:00;4.63;;;2.10;;
9948;SDS011;5013;51.840;8.276;2023-03-05T12:51:47;5.87;;;1.80;;
9948;SDS011;5013;51.840;8.276;2023-03-05T12:54:28;6.57;;;3.40;;
9948;SDS011;5013;51.840;8.276;2023-03-05T12:57:16;2.97;;;2.70;;
9948;SDS011;5013;51.840;8.276;2023-03-05T13:02:35;3.00;;;1.83;;
9948;SDS011;5013;51.840;8.276;2023-03-05T13:05:06;6.17;;;2.67;;
9948;SDS011;5013;51.840;8.276;2023-03-05T13:07:45;8.33;;;2.60;;
9948;SDS011;5013;51.840;8.276;2023-03-05T13:10:22;4.90;;;2.50;;
9948;SDS011;5013;51.840;8.276;2023-03-05T13:12:50;6.27;;;3.00;;
9948;SDS011;5013;51.840;8.276;2023-03-05T13:15:17;4.57;;;2.27;;
9948;SDS011;5013;51.840;8.276;2023-03-05T13:18:02;5.53;;;2.20;;
9948;SDS011;5013;51.840;8.276;2023-03-05T13:25:29;4.17;;;2.80;;
9948;SDS011;5013;51.840;8.276;2023-03-05T13:28:05;3.90;;;2.60;;
9948;SDS011;5013;51.840;8.276;2023-03-05T13:30:38;6.17;;;2.70;;
9948;SDS011;5013;51.840;8.276;2023-03-05T13:33:15;6.70;;;2.90;;
9948;SDS011;5013;51.840;8.276;2023-03-05T13:35:44;4.30;;;2.40;;
9948;SDS011;5013;51.840;8.276;2023-03-05T13:38:21;4.70;;;2.23;;
9948;SDS011;5013;51.840;8.276;2023-03-05T13:43:32;3.63;;;2.00;;
9948;SDS011;5013;51.840;8.276;2023-03-05T13:45:58;5.77;;;2.13;;
9948;SDS011;5013;51.840;8.276;2023-03-05T13:48:25;6.10;;;2.13;;
9948;SDS011;5013;51.840;8.276;2023-03-05T13:50:55;4.20;;;1.60;;
9948;SDS011;5013;51.840;8.276;2023-03-05T13:53:23;3.40;;;1.60;;
9948;SDS011;5013;51.840;8.276;2023-03-05T13:55:58;6.00;;;1.80;;
9948;SDS011;5013;51.840;8.276;2023-03-05T14:01:33;3.80;;;1.90;;
9948;SDS011;5013;51.840;8.276;2023-03-05T14:09:17;2.13;;;1.93;;
9948;SDS011;5013;51.840;8.276;2023-03-05T14:11:58;4.70;;;1.70;;
9948;SDS011;5013;51.840;8.276;2023-03-05T14:14:27;5.73;;;2.07;;
9948;SDS011;5013;51.840;8.276;2023-03-05T14:16:56;3.87;;;1.83;;
9948;SDS011;5013;51.840;8.276;2023-03-05T14:19:48;2.93;;;1.40;;
9948;SDS011;5013;51.840;8.276;2023-03-05T14:22:33;4.13;;;1.47;;
9948;SDS011;5013;51.840;8.276;2023-03-05T14:25:01;4.70;;;2.10;;
9948;SDS011;5013;51.840;8.276;2023-03-05T14:27:30;3.70;;;1.70;;
9948;SDS011;5013;51.840;8.276;2023-03-05T14:29:59;5.77;;;1.73;;
9948;SDS011;5013;51.840;8.276;2023-03-05T14:34:54;4.30;;;2.10;;
9948;SDS011;5013;51.840;8.276;2023-03-05T14:37:27;3.70;;;1.50;;
9948;SDS011;5013;51.840;8.276;2023-03-05T14:45:17;4.57;;;1.47;;
9948;SDS011;5013;51.840;8.276;2023-03-05T14:48:03;5.47;;;1.47;;
9948;SDS011;5013;51.840;8.276;2023-03-05T14:53:02;3.60;;;1.60;;
9948;SDS011;5013;51.840;8.276;2023-03-05T14:55:33;2.73;;;1.70;;
9948;SDS011;5013;51.840;8.276;2023-03-05T14:58:00;2.73;;;1.30;;
9948;SDS011;5013;51.840;8.276;2023-03-05T15:00:28;2.23;;;1.20;;
9948;SDS011;5013;51.840;8.276;2023-03-05T15:02:55;3.23;;;1.20;;
9948;SDS011;5013;51.840;8.276;2023-03-05T15:05:22;1.50;;;1.13;;
9948;SDS011;5013;51.840;8.276;2023-03-05T15:07:48;3.50;;;1.63;;
9948;SDS011;5013;51.840;8.276;2023-03-05T15:10:16;2.17;;;1.57;;
9948;SDS011;5013;51.840;8.276;2023-03-05T15:12:43;3.20;;;1.73;;
9948;SDS011;5013;51.840;8.276;2023-03-05T15:15:10;2.77;;;1.63;;
9948;SDS011;5013;51.840;8.276;2023-03-05T15:17:39;2.77;;;1.43;;
9948;SDS011;5013;51.840;8.276;2023-03-05T15:21:04;3.47;;;1.13;;
9948;SDS011;5013;51.840;8.276;2023-03-05T15:23:46;1.73;;;1.27;;
9948;SDS011;5013;51.840;8.276;2023-03-05T15:26:12;5.10;;;1.60;;
9948;SDS011;5013;51.840;8.276;2023-03-05T15:28:39;11.03;;;2.27;;
9948;SDS011;5013;51.840;8.276;2023-03-05T15:31:05;3.37;;;1.40;;
9948;SDS011;5013;51.840;8.276;2023-03-05T15:33:31;5.77;;;1.33;;
9948;SDS011;5013;51.840;8.276;2023-03-05T15:35:57;3.83;;;1.60;;
9948;SDS011;5013;51.840;8.276;2023-03-05T15:38:23;2.40;;;1.53;;
9948;SDS011;5013;51.840;8.276;2023-03-05T15:40:49;4.47;;;1.97;;
9948;SDS011;5013;51.840;8.276;2023-03-05T15:43:16;9.47;;;2.07;;
9948;SDS011;5013;51.840;8.276;2023-03-05T15:45:43;6.33;;;2.27;;
9948;SDS011;5013;51.840;8.276;2023-03-05T15:48:08;4.47;;;1.40;;
9948;SDS011;5013;51.840;8.276;2023-03-05T15:50:34;1.40;;;1.30;;
9948;SDS011;5013;51.840;8.276;2023-03-05T15:52:59;2.47;;;1.40;;
9948;SDS011;5013;51.840;8.276;2023-03-05T15:55:25;3.43;;;1.40;;
9948;SDS011;5013;51.840;8.276;2023-03-05T15:57:51;2.73;;;1.43;;
9948;SDS011;5013;51.840;8.276;2023-03-05T16:00:19;1.27;;;1.17;;
9948;SDS011;5013;51.840;8.276;2023-03-05T16:02:49;2.77;;;1.30;;
9948;SDS011;5013;51.840;8.276;2023-03-05T16:05:15;4.33;;;1.80;;
9948;SDS011;5013;51.840;8.276;2023-03-05T16:07:41;5.90;;;2.00;;
9948;SDS011;5013;51.840;8.276;2023-03-05T16:10:10;2.93;;;1.33;;
9948;SDS011;5013;51.840;8.276;2023-03-05T16:12:37;1.93;;;1.60;;
9948;SDS011;5013;51.840;8.276;2023-03-05T16:15:09;3.47;;;1.90;;
9948;SDS011;5013;51.840;8.276;2023-03-05T16:17:37;2.33;;;1.50;;
9948;SDS011;5013;51.840;8.276;2023-03-05T16:20:05;2.03;;;1.23;;
9948;SDS011;5013;51.840;8.276;2023-03-05T16:22:31;3.10;;;1.93;;
9948;SDS011;5013;51.840;8.276;2023-03-05T16:24:57;5.40;;;2.33;;
9948;SDS011;5013;51.840;8.276;2023-03-05T16:27:25;2.53;;;2.20;;
9948;SDS011;5013;51.840;8.276;2023-03-05T16:29:51;3.63;;;2.10;;
9948;SDS011;5013;51.840;8.276;2023-03-05T16:32:16;3.77;;;2.90;;
9948;SDS011;5013;51.840;8.276;2023-03-05T16:34:42;3.53;;;2.80;;
9948;SDS011;5013;51.840;8.276;2023-03-05T16:37:08;6.87;;;4.00;;
9948;SDS011;5013;51.840;8.276;2023-03-05T16:39:34;6.77;;;3.07;;
9948;SDS011;5013;51.840;8.276;2023-03-05T16:41:59;5.03;;;3.30;;
9948;SDS011;5013;51.840;8.276;2023-03-05T16:44:25;6.83;;;4.30;;
9948;SDS011;5013;51.840;8.276;2023-03-05T16:46:51;11.70;;;8.23;;
9948;SDS011;5013;51.840;8.276;2023-03-05T16:49:18;9.43;;;7.07;;
9948;SDS011;5013;51.840;8.276;2023-03-05T16:51:44;4.93;;;4.40;;
9948;SDS011;5013;51.840;8.276;2023-03-05T16:54:10;3.53;;;3.33;;